Pensacola Naval Air Station,Forrest Sherman field Pensacola US
ICAO: KNPA
IATA: NPA
Category: Medium
Scheduled Services: No

Elevation: 28 ft
TransAlt. 18000 ft.

Airport Communications:
APP:120.05
ATIS:26.76
SHERMAN CLNC DEL:134.1
DEP:120.65
SHERMAN GND:121.7
SHERMAN BASE OPS:31.21
PMSV METRO:35.96
SHERMAN TWR:120.7

KNPA Zoom In..

Runways:

(A) RW 01 length 7137 ft width 200 ft
---- / hdg 7

(B) RW 07L length 8002 ft width 200 ft
ILS 109.30 / hdg 70

(C) RW 07R length 8001 ft width 200 ft
---- / hdg 69

(D) RW 19 length 7137 ft width 200 ft
---- / hdg 187

(E) RW 25L length 8001 ft width 200 ft
---- / hdg 249

(F) RW 25R length 8002 ft width 200 ft
---- / hdg 250

Location; KNPA
Day. 16 / Time. 18.20 Zulu
* Altimeter: 30.06
* Temperature: 24° c. 75.2°f.
* Wind from: 330° Speed 09 kn.
Dewpoint: 21° c.
Visibility: 1 m.
Clouds: Scattered 1800 ft.
Clouds: Broken 3000 ft.
Clouds: Overcast 8000 ft.
Conditions: Thunderstorm.

KNPA 161820Z 33009KT 1 1/2SM TSRA SCT018 BKN030CB OVC080 24/21 A3006 RMK FRQ LTGICCG OHD TS OHD MOV S T1 SET P0022 T02390211


Wind From 330°
Speed 09 kn.

 
 
jpsmedia.com for Web Design worldairports.se 2018   terms of use